Time;durP1;ratioP1;P1;durP2;ratioP2;P2;SDS_P1;SDS_P2;PMS_P1;PMS_P2;Temp;Humidity;BMP_temperature;BMP_pressure;BME280_temperature;BME280_humidity;BME280_pressure;Samples;Min_cycle;Max_cycle;Signal;HPM_P1;HPM_P2
2023/08/28 00:01:07;;;;;;;4.72;4.35;;;;;;;;;;5031253;28;20234;-63
2023/08/28 00:03:34;;;;;;;5.68;4.25;;;;;;;;;;5029940;28;20225;-63
2023/08/28 00:06:00;;;;;;;4.15;3.80;;;;;;;;;;5030330;28;20207;-63
2023/08/28 00:08:27;;;;;;;10.60;3.88;;;;;;;;;;5030299;28;20199;-63
2023/08/28 00:10:54;;;;;;;6.40;4.13;;;;;;;;;;5030841;28;20208;-63
2023/08/28 00:13:21;;;;;;;5.68;4.10;;;;;;;;;;5029859;28;20200;-63
2023/08/28 00:15:47;;;;;;;7.75;4.10;;;;;;;;;;5031043;28;20295;-63
2023/08/28 00:18:14;;;;;;;5.28;4.20;;;;;;;;;;5030022;28;20211;-64
2023/08/28 00:20:40;;;;;;;4.95;3.78;;;;;;;;;;5039655;28;20234;-63
2023/08/28 00:23:07;;;;;;;5.40;4.07;;;;;;;;;;5031232;28;20255;-63
2023/08/28 00:25:33;;;;;;;5.13;3.90;;;;;;;;;;5030279;28;20239;-66
2023/08/28 00:28:01;;;;;;;4.28;3.90;;;;;;;;;;5029888;28;20262;-63
2023/08/28 00:30:28;;;;;;;4.88;3.58;;;;;;;;;;5030510;28;20202;-63
2023/08/28 00:32:54;;;;;;;7.32;3.78;;;;;;;;;;5029985;28;20203;-65
2023/08/28 00:35:20;;;;;;;4.10;3.67;;;;;;;;;;5030875;28;20235;-65
2023/08/28 00:37:47;;;;;;;4.28;3.50;;;;;;;;;;5029777;28;20203;-65
2023/08/28 00:40:13;;;;;;;5.07;4.40;;;;;;;;;;5029970;28;20237;-65
2023/08/28 00:42:40;;;;;;;4.63;4.20;;;;;;;;;;5029690;28;20232;-64
2023/08/28 00:45:08;;;;;;;3.83;3.53;;;;;;;;;;5030445;28;20227;-64
2023/08/28 00:47:35;;;;;;;4.05;3.65;;;;;;;;;;5029369;28;20235;-65
2023/08/28 00:50:02;;;;;;;6.13;4.22;;;;;;;;;;5030359;28;20400;-64
2023/08/28 00:52:29;;;;;;;4.95;3.22;;;;;;;;;;5028847;28;20216;-64
2023/08/28 00:54:55;;;;;;;4.55;4.18;;;;;;;;;;5030021;28;20211;-64
2023/08/28 00:57:22;;;;;;;5.55;4.80;;;;;;;;;;5029458;28;20208;-65
2023/08/28 00:59:49;;;;;;;5.75;5.25;;;;;;;;;;5028237;28;20231;-64
2023/08/28 01:02:17;;;;;;;10.15;5.03;;;;;;;;;;5028284;28;20227;-65
2023/08/28 01:04:43;;;;;;;5.72;5.22;;;;;;;;;;5027834;28;20207;-64
2023/08/28 01:07:12;;;;;;;6.25;5.70;;;;;;;;;;5028037;28;20677;-65
2023/08/28 01:09:44;;;;;;;6.10;5.50;;;;;;;;;;5027467;28;20199;-65
2023/08/28 01:12:13;;;;;;;5.95;5.43;;;;;;;;;;5027892;28;20204;-65
2023/08/28 01:14:46;;;;;;;6.57;5.95;;;;;;;;;;5027476;28;20196;-65
2023/08/28 01:17:14;;;;;;;6.00;5.10;;;;;;;;;;5031893;28;20759;-64
2023/08/28 01:19:42;;;;;;;16.17;4.88;;;;;;;;;;5031739;28;20199;-65
2023/08/28 01:22:11;;;;;;;6.47;5.75;;;;;;;;;;5032904;28;20608;-64
2023/08/28 01:24:41;;;;;;;5.63;5.20;;;;;;;;;;5032573;28;20204;-64
2023/08/28 01:27:09;;;;;;;4.65;4.25;;;;;;;;;;5033552;28;20235;-65
2023/08/28 01:29:35;;;;;;;7.38;4.53;;;;;;;;;;5033742;28;20257;-65
2023/08/28 01:32:02;;;;;;;5.50;4.43;;;;;;;;;;5033257;28;20661;-64
2023/08/28 01:34:28;;;;;;;6.07;4.68;;;;;;;;;;5033394;28;20208;-64
2023/08/28 01:36:58;;;;;;;6.43;4.35;;;;;;;;;;5033602;28;20203;-65
2023/08/28 01:39:29;;;;;;;5.40;4.18;;;;;;;;;;5033143;28;20635;-65
2023/08/28 01:41:56;;;;;;;5.25;4.28;;;;;;;;;;5032985;28;20654;-64
2023/08/28 01:44:25;;;;;;;5.20;4.20;;;;;;;;;;5021321;28;20223;-64
2023/08/28 01:46:52;;;;;;;3.97;3.67;;;;;;;;;;5033003;28;20243;-64
2023/08/28 01:49:18;;;;;;;4.53;4.10;;;;;;;;;;5033350;28;20200;-64
2023/08/28 01:51:44;;;;;;;3.35;3.15;;;;;;;;;;5032925;28;20231;-64
2023/08/28 01:54:11;;;;;;;10.07;4.10;;;;;;;;;;5033557;28;20258;-64
2023/08/28 01:56:37;;;;;;;3.92;3.35;;;;;;;;;;5032824;28;20208;-64
2023/08/28 01:59:04;;;;;;;4.32;3.50;;;;;;;;;;5033438;28;20649;-64
2023/08/28 02:01:32;;;;;;;5.25;3.80;;;;;;;;;;5032785;28;20258;-65
2023/08/28 02:03:58;;;;;;;5.47;4.13;;;;;;;;;;5033006;28;20223;-64
2023/08/28 02:06:25;;;;;;;7.10;4.72;;;;;;;;;;5032379;28;20246;-65
2023/08/28 02:08:51;;;;;;;8.02;4.90;;;;;;;;;;5033279;28;20199;-65
2023/08/28 02:11:18;;;;;;;4.30;3.90;;;;;;;;;;5032469;28;20228;-65
2023/08/28 02:13:44;;;;;;;4.78;4.38;;;;;;;;;;5032846;28;20210;-65
2023/08/28 02:16:11;;;;;;;4.80;4.32;;;;;;;;;;5032708;28;20207;-64
2023/08/28 02:18:39;;;;;;;4.43;4.03;;;;;;;;;;5033357;28;20287;-65
2023/08/28 02:21:05;;;;;;;7.35;4.03;;;;;;;;;;5032346;28;20230;-65
2023/08/28 02:23:32;;;;;;;4.97;3.83;;;;;;;;;;5032616;28;20289;-64
2023/08/28 02:25:58;;;;;;;11.35;5.70;;;;;;;;;;5032302;28;20204;-64
2023/08/28 02:28:25;;;;;;;6.53;5.00;;;;;;;;;;5031480;28;20684;-65
2023/08/28 02:30:51;;;;;;;5.28;4.78;;;;;;;;;;5032328;28;20291;-64
2023/08/28 02:33:18;;;;;;;4.78;4.32;;;;;;;;;;5032219;28;20219;-65
2023/08/28 02:35:46;;;;;;;6.20;5.20;;;;;;;;;;5032317;28;20227;-64
2023/08/28 02:38:13;;;;;;;6.82;4.85;;;;;;;;;;5032267;28;20212;-65
2023/08/28 02:40:40;;;;;;;4.93;4.47;;;;;;;;;;5032423;28;20281;-65
2023/08/28 02:43:07;;;;;;;5.22;4.72;;;;;;;;;;5032478;28;20227;-65
2023/08/28 02:45:34;;;;;;;5.55;5.03;;;;;;;;;;5031973;28;20227;-65
2023/08/28 02:48:01;;;;;;;12.02;5.13;;;;;;;;;;5032001;28;20322;-63
2023/08/28 02:50:27;;;;;;;5.30;4.80;;;;;;;;;;5031332;28;20666;-63
2023/08/28 02:52:55;;;;;;;9.00;5.28;;;;;;;;;;5032270;28;20250;-64
2023/08/28 02:55:22;;;;;;;5.20;4.70;;;;;;;;;;5031928;28;20270;-64
2023/08/28 02:57:48;;;;;;;10.27;4.72;;;;;;;;;;5032140;28;20270;-63
2023/08/28 03:00:15;;;;;;;6.05;5.55;;;;;;;;;;5021282;28;20227;-64
2023/08/28 03:02:42;;;;;;;6.95;4.93;;;;;;;;;;5029969;28;20281;-64
2023/08/28 03:05:10;;;;;;;7.72;5.35;;;;;;;;;;5030359;28;20246;-64
2023/08/28 03:07:38;;;;;;;5.70;4.90;;;;;;;;;;5031012;28;20203;-63
2023/08/28 03:10:07;;;;;;;6.30;4.55;;;;;;;;;;5030769;28;20250;-64
2023/08/28 03:12:33;;;;;;;6.07;5.50;;;;;;;;;;5030587;28;20257;-64
2023/08/28 03:15:00;;;;;;;7.47;5.70;;;;;;;;;;5030736;28;20312;-64
2023/08/28 03:17:26;;;;;;;5.72;5.20;;;;;;;;;;5030354;28;20250;-64
2023/08/28 03:19:53;;;;;;;5.88;5.38;;;;;;;;;;5030603;28;20223;-64
2023/08/28 03:22:19;;;;;;;8.10;4.97;;;;;;;;;;5031626;28;20207;-64
2023/08/28 03:24:46;;;;;;;6.70;6.10;;;;;;;;;;5032052;28;20578;-63
2023/08/28 03:27:14;;;;;;;8.38;5.20;;;;;;;;;;5032066;28;20234;-64
2023/08/28 03:29:41;;;;;;;6.13;5.47;;;;;;;;;;5031513;28;20665;-64
2023/08/28 03:32:07;;;;;;;6.18;5.57;;;;;;;;;;5031205;28;20207;-65
2023/08/28 03:34:34;;;;;;;10.43;5.63;;;;;;;;;;5031645;28;20200;-63
2023/08/28 03:37:00;;;;;;;8.88;5.70;;;;;;;;;;5031359;28;20677;-64
2023/08/28 03:39:27;;;;;;;7.47;6.57;;;;;;;;;;5031204;28;20285;-63
2023/08/28 03:41:53;;;;;;;6.72;6.13;;;;;;;;;;5031486;28;20281;-64
2023/08/28 03:44:21;;;;;;;6.28;5.78;;;;;;;;;;5019262;28;20289;-64
2023/08/28 03:46:47;;;;;;;7.07;5.88;;;;;;;;;;5031174;28;20235;-64
2023/08/28 03:49:14;;;;;;;13.52;6.95;;;;;;;;;;5031802;28;20204;-64
2023/08/28 03:51:40;;;;;;;10.50;7.07;;;;;;;;;;5030766;28;20210;-64
2023/08/28 03:54:10;;;;;;;9.27;7.18;;;;;;;;;;5031339;28;20281;-64
2023/08/28 03:56:37;;;;;;;9.07;7.80;;;;;;;;;;5031089;28;20206;-64
2023/08/28 03:59:03;;;;;;;8.23;7.32;;;;;;;;;;5031177;28;20203;-64
2023/08/28 04:01:31;;;;;;;7.15;6.55;;;;;;;;;;5031061;28;20266;-64
2023/08/28 04:03:57;;;;;;;13.70;7.75;;;;;;;;;;5030921;28;20313;-64
2023/08/28 04:06:24;;;;;;;12.40;7.00;;;;;;;;;;5031348;28;20199;-64
2023/08/28 04:08:50;;;;;;;22.52;16.08;;;;;;;;;;5030949;28;20231;-64
2023/08/28 04:11:17;;;;;;;16.35;13.65;;;;;;;;;;5030891;28;20200;-64
2023/08/28 04:13:43;;;;;;;11.80;7.65;;;;;;;;;;5031200;28;20203;-64
2023/08/28 04:16:10;;;;;;;9.52;7.05;;;;;;;;;;5030340;28;20230;-63
2023/08/28 04:18:37;;;;;;;9.48;6.53;;;;;;;;;;5031223;28;20281;-64
2023/08/28 04:21:04;;;;;;;7.50;6.60;;;;;;;;;;5030609;28;20200;-65
2023/08/28 04:23:31;;;;;;;7.70;7.00;;;;;;;;;;5030712;28;20224;-64
2023/08/28 04:25:58;;;;;;;9.30;6.95;;;;;;;;;;5030581;28;20204;-64
2023/08/28 04:28:24;;;;;;;12.50;6.32;;;;;;;;;;5030929;28;20270;-64
2023/08/28 04:30:51;;;;;;;10.00;6.05;;;;;;;;;;5030266;28;20337;-64
2023/08/28 04:33:17;;;;;;;8.35;7.45;;;;;;;;;;5030758;28;20199;-64
2023/08/28 04:35:45;;;;;;;16.80;7.25;;;;;;;;;;5030880;28;20208;-64
2023/08/28 04:38:12;;;;;;;7.97;6.72;;;;;;;;;;5030361;28;20207;-63
2023/08/28 04:40:38;;;;;;;6.95;6.32;;;;;;;;;;5030794;28;20208;-65
2023/08/28 04:43:04;;;;;;;30.38;17.33;;;;;;;;;;5030253;28;20333;-63
2023/08/28 04:45:31;;;;;;;18.83;14.30;;;;;;;;;;5029684;28;20219;-64
2023/08/28 04:47:58;;;;;;;9.88;8.82;;;;;;;;;;5030163;28;20236;-64
2023/08/28 04:50:24;;;;;;;7.20;6.47;;;;;;;;;;5029935;28;20214;-65
2023/08/28 04:52:52;;;;;;;7.97;7.00;;;;;;;;;;5030424;28;20224;-65
2023/08/28 04:55:18;;;;;;;9.90;7.05;;;;;;;;;;5030455;28;20215;-65
2023/08/28 04:57:45;;;;;;;14.52;8.98;;;;;;;;;;5030646;28;20235;-65
2023/08/28 05:00:12;;;;;;;25.08;17.63;;;;;;;;;;5034581;28;20580;-68
2023/08/28 05:02:38;;;;;;;40.28;20.42;;;;;;;;;;5028902;28;20268;-66
2023/08/28 05:05:05;;;;;;;22.45;14.38;;;;;;;;;;5028364;28;20226;-66
2023/08/28 05:07:32;;;;;;;9.45;8.52;;;;;;;;;;5028555;28;20250;-65
2023/08/28 05:10:00;;;;;;;19.30;9.27;;;;;;;;;;5027754;28;20686;-65
2023/08/28 05:12:26;;;;;;;14.32;9.02;;;;;;;;;;5028584;28;20207;-65
2023/08/28 05:14:53;;;;;;;10.07;8.32;;;;;;;;;;5026546;28;20293;-65
2023/08/28 05:17:19;;;;;;;10.02;8.95;;;;;;;;;;5028861;28;20623;-65
2023/08/28 05:19:46;;;;;;;16.95;9.55;;;;;;;;;;5026870;28;20199;-65
2023/08/28 05:22:12;;;;;;;19.13;11.48;;;;;;;;;;5028881;28;20567;-64
2023/08/28 05:24:40;;;;;;;12.02;8.48;;;;;;;;;;5029411;28;20756;-64
2023/08/28 05:27:08;;;;;;;9.05;8.25;;;;;;;;;;5029816;28;20287;-65
2023/08/28 05:29:34;;;;;;;7.40;6.53;;;;;;;;;;5029713;28;20210;-65
2023/08/28 05:32:04;;;;;;;16.10;7.43;;;;;;;-142.91;100.00;45153.44;5030017;28;20204;-65
2023/08/28 05:34:32;;;;;;;13.88;8.20;;;;;;;;;;5029580;28;20731;-65
2023/08/28 05:36:58;;;;;;;7.78;6.50;;;;;;;;;;5029881;28;20597;-65
2023/08/28 05:39:25;;;;;;;8.55;6.75;;;;;;;;;;5029474;28;20212;-65
2023/08/28 05:41:52;;;;;;;11.52;7.32;;;;;;;;;;5029835;28;20215;-65
2023/08/28 05:44:19;;;;;;;11.13;8.55;;;;;;;;;;5030001;28;20220;-65
2023/08/28 05:46:46;;;;;;;9.32;6.97;;;;;;;;;;5029681;28;20203;-66
2023/08/28 05:49:12;;;;;;;8.43;6.63;;;;;;;;;;5018269;28;20223;-65
2023/08/28 05:51:39;;;;;;;16.35;7.43;;;;;;;;;;5029404;28;20235;-64
2023/08/28 05:54:05;;;;;;;9.27;5.75;;;;;;;;;;5030159;28;20259;-65
2023/08/28 05:56:35;;;;;;;6.18;5.55;;;;;;;;;;5029406;28;20616;-65
2023/08/28 05:59:04;;;;;;;6.30;5.70;;;;;;;;;;5030004;28;20228;-65
2023/08/28 06:01:32;;;;;;;11.52;6.43;;;;;;;;;;5019672;28;20208;-66
2023/08/28 06:04:00;;;;;;;14.63;6.15;;;;;;;;;;5033208;28;20305;-65
2023/08/28 06:06:28;;;;;;;10.57;5.93;;;;;;;;;;5033797;28;20203;-65
2023/08/28 06:08:54;;;;;;;8.55;5.72;;;;;;;;;;5033717;28;20200;-66
2023/08/28 06:11:23;;;;;;;12.10;6.18;;;;;;;;;;5033119;28;20223;-66
2023/08/28 06:13:49;;;;;;;5.93;5.35;;;;;;;;;;5034083;28;20199;-66
2023/08/28 06:16:16;;;;;;;10.13;6.65;;;;;;;;;;5032687;28;20210;-66
2023/08/28 06:18:44;;;;;;;7.93;7.22;;;;;;;;;;5033548;28;20214;-66
2023/08/28 06:21:10;;;;;;;8.15;6.22;;;;;;;;;;5032309;28;20203;-66
2023/08/28 06:23:37;;;;;;;6.57;6.05;;;;;;;;;;5033109;28;20590;-66
2023/08/28 06:26:04;;;;;;;19.65;10.88;;;;;;;;;;5032377;28;20567;-66
2023/08/28 06:28:30;;;;;;;8.10;6.70;;;;;;;;;;5033002;28;20294;-67
2023/08/28 06:30:57;;;;;;;11.55;6.25;;;;;;;;;;5033139;28;20207;-67
2023/08/28 06:33:23;;;;;;;6.15;5.75;;;;;;;;;;5032723;28;20199;-67
2023/08/28 06:35:52;;;;;;;10.10;5.80;;;;;;;;;;5032891;28;20245;-67
2023/08/28 06:38:19;;;;;;;6.53;6.03;;;;;;;;;;5032644;28;20739;-67
2023/08/28 06:40:48;;;;;;;11.82;6.00;;;;;;;;;;5032414;28;20227;-67
2023/08/28 06:43:15;;;;;;;7.20;5.32;;;;;;;;;;5032503;28;20236;-67
2023/08/28 06:45:41;;;;;;;8.38;6.25;;;;;;;;;;5032501;28;20258;-67
2023/08/28 06:48:08;;;;;;;10.05;5.53;;;;;;;;;;5032178;28;20740;-67
2023/08/28 06:50:34;;;;;;;9.43;5.28;;;;;;;;;;5032222;28;20257;-67
2023/08/28 06:53:02;;;;;;;11.93;5.28;;;;;;;;;;5032539;28;20223;-67
2023/08/28 06:55:28;;;;;;;8.25;5.75;;;;;;;;;;5032251;28;20203;-67
2023/08/28 06:57:55;;;;;;;5.78;5.38;;;;;;;;;;5032228;28;20222;-67
2023/08/28 07:00:21;;;;;;;6.97;5.47;;;;;;;;;;5026012;28;20598;-67
2023/08/28 07:02:48;;;;;;;9.40;8.50;;;;;;;;;;5030267;28;20242;-68
2023/08/28 07:05:14;;;;;;;6.38;5.88;;;;;;;;;;5030218;28;20250;-68
2023/08/28 07:07:41;;;;;;;6.50;5.40;;;;;;;;;;5030597;28;20230;-68
2023/08/28 07:10:09;;;;;;;5.97;5.28;;;;;;;;;;5030334;28;20352;-66
2023/08/28 07:12:35;;;;;;;7.20;5.30;;;;;;;;;;5030068;28;20199;-66
2023/08/28 07:15:23;;;;;;;6.60;5.13;;;;;;;;;;5029818;28;20199;-67
2023/08/28 07:17:49;;;;;;;9.32;6.22;;;;;;;;;;5026568;28;20221;-67
2023/08/28 07:20:16;;;;;;;8.68;5.15;;;;;;;;;;5030660;28;20238;-67
2023/08/28 07:22:42;;;;;;;5.82;5.32;;;;;;;;;;5031144;28;20732;-67
2023/08/28 07:25:10;;;;;;;10.05;7.05;;;;;;;;;;5031926;28;20235;-67
2023/08/28 07:27:37;;;;;;;8.80;6.15;;;;;;;;;;5031596;28;20207;-67
2023/08/28 07:30:04;;;;;;;6.75;5.10;;;;;;;;;;5032219;28;20266;-67
2023/08/28 07:32:31;;;;;;;7.00;6.30;;;;;;;;;;5031081;28;20294;-68
2023/08/28 07:34:59;;;;;;;8.77;5.82;;;;;;;;;;5032144;28;20230;-67
2023/08/28 07:37:28;;;;;;;5.97;5.30;;;;;;;;;;5031308;28;20293;-67
2023/08/28 07:39:54;;;;;;;6.10;5.00;;;;;;;;;;5031505;28;20684;-67
2023/08/28 07:42:22;;;;;;;8.55;5.28;;;;;;;;;;5031296;28;20635;-67
2023/08/28 07:44:49;;;;;;;9.57;5.72;;;;;;;;;;5031437;28;20230;-67
2023/08/28 07:47:15;;;;;;;12.63;5.10;;;;;;;;;;5031292;28;20285;-67
2023/08/28 07:49:42;;;;;;;6.20;5.40;;;;;;;;;;5031176;28;20257;-67
2023/08/28 07:52:09;;;;;;;6.80;4.60;;;;;;;;;;5027394;28;20284;-67
2023/08/28 07:54:36;;;;;;;5.80;4.68;;;;;;;;;;5023158;28;20273;-67
2023/08/28 07:57:03;;;;;;;9.13;5.13;;;;;;;;;;5030993;28;20776;-67
2023/08/28 07:59:31;;;;;;;8.68;5.47;;;;;;;;;;5031261;28;20291;-68
2023/08/28 08:01:58;;;;;;;5.68;4.93;;;;;;;;;;5030531;28;21131;-67
2023/08/28 08:04:24;;;;;;;7.22;5.32;;;;;;;;;;5030668;28;20313;-67
2023/08/28 08:06:51;;;;;;;8.48;4.78;;;;;;;;;;5031013;28;20448;-67
2023/08/28 08:09:17;;;;;;;5.72;5.22;;;;;;;;;;5030993;28;20211;-67
2023/08/28 08:11:44;;;;;;;9.55;6.00;;;;;;;;;;5031208;28;20206;-67
2023/08/28 08:14:10;;;;;;;5.90;5.38;;;;;;;;;;5030483;28;20241;-67
2023/08/28 08:16:38;;;;;;;6.53;5.43;;;;;;;;;;5030426;28;20199;-67
2023/08/28 08:19:04;;;;;;;8.20;5.10;;;;;;;;;;5030092;28;20207;-68
2023/08/28 08:21:31;;;;;;;7.07;5.85;;;;;;;;;;5029040;28;20206;-67
2023/08/28 08:23:57;;;;;;;5.65;4.97;;;;;;;;;;5030193;28;20211;-67
2023/08/28 08:26:24;;;;;;;13.52;6.00;;;;;;;;;;5027909;28;20250;-67
2023/08/28 08:28:50;;;;;;;10.25;6.90;;;;;;;;;;5030887;28;20211;-67
2023/08/28 08:31:17;;;;;;;7.88;5.18;;;;;;;;;;5030179;28;20231;-67
2023/08/28 08:33:45;;;;;;;7.45;6.03;;;;;;;;;;5030244;28;20207;-67
2023/08/28 08:36:13;;;;;;;9.55;8.20;;;;;;;;;;5030032;28;20302;-67
2023/08/28 08:38:40;;;;;;;7.15;6.18;;;;;;;;;;5030179;28;20214;-68
2023/08/28 08:41:07;;;;;;;8.43;6.65;;;;;;;;;;5030404;28;20249;-69
2023/08/28 08:43:34;;;;;;;9.85;7.80;;;;;;;;;;5030132;28;20207;-68
2023/08/28 08:46:02;;;;;;;12.48;7.20;;;;;;;;;;5030148;28;20226;-67
2023/08/28 08:48:30;;;;;;;8.65;7.35;;;;;;;;;;5029810;28;20774;-67
2023/08/28 08:51:04;;;;;;;6.45;5.82;;;;;;;;;;5030425;28;20290;-68
2023/08/28 08:53:35;;;;;;;5.88;4.93;;;;;;;;;;5029822;28;20268;-67
2023/08/28 08:56:03;;;;;;;7.20;4.90;;;;;;;;;;5030321;28;20300;-66
2023/08/28 08:58:30;;;;;;;7.55;4.78;;;;;;;;;;5030036;28;20198;-66
2023/08/28 09:00:57;;;;;;;5.78;4.10;;;;;;;;;;5028525;28;20313;-66
2023/08/28 09:03:24;;;;;;;11.02;5.10;;;;;;;;;;5027841;28;20630;-66
2023/08/28 09:05:51;;;;;;;4.88;4.40;;;;;;;;;;5028165;28;20223;-67
2023/08/28 09:08:19;;;;;;;7.07;5.30;;;;;;;;;;5027672;28;20258;-67
2023/08/28 09:10:46;;;;;;;5.05;4.53;;;;;;;;;;5028287;28;20630;-67
2023/08/28 09:13:12;;;;;;;5.03;4.63;;;;;;;;;;5027718;28;20199;-67
2023/08/28 09:15:39;;;;;;;8.07;5.13;;;;;;;;;;5028083;28;20688;-67
2023/08/28 09:18:06;;;;;;;6.38;5.00;;;;;;;;;;5032728;28;20278;-66
2023/08/28 09:20:32;;;;;;;4.85;4.38;;;;;;;;;;5037707;28;20291;-66
2023/08/28 09:22:59;;;;;;;9.13;4.78;;;;;;;;;;5029659;28;20446;-66
2023/08/28 09:25:27;;;;;;;7.97;5.15;;;;;;;;;;5029661;28;20592;-67
2023/08/28 09:27:54;;;;;;;5.72;4.63;;;;;;;;;;5029421;28;20603;-67
2023/08/28 09:30:30;;;;;;;8.02;4.55;;;;;;;;;;5029899;28;20199;-67
2023/08/28 09:32:57;;;;;;;9.68;5.45;;;;;;;;;;5030036;28;20226;-67
2023/08/28 09:35:25;;;;;;;5.32;4.28;;;;;;;;;;5029402;28;20254;-66
2023/08/28 09:38:01;;;;;;;8.73;4.72;;;;;;;;;;5032698;28;20265;-66
2023/08/28 09:40:30;;;;;;;4.95;4.55;;;;;;;;;;5033221;28;20581;-66
2023/08/28 09:42:57;;;;;;;5.57;4.68;;;;;;;;;;5033361;28;20204;-67
2023/08/28 09:45:23;;;;;;;6.80;4.25;;;;;;;;;;5033280;28;20219;-67
2023/08/28 09:47:52;;;;;;;7.45;4.68;;;;;;;;;;5032969;28;20285;-67
2023/08/28 09:50:23;;;;;;;6.75;5.00;;;;;;;;;;5033341;28;20238;-67
2023/08/28 09:52:49;;;;;;;7.28;4.60;;;;;;;;;;5033039;28;20784;-66
2023/08/28 09:55:16;;;;;;;4.35;3.95;;;;;;;;;;5033470;28;20204;-66
2023/08/28 09:57:44;;;;;;;6.88;4.05;;;;;;;;;;5033310;28;20301;-66
2023/08/28 10:00:12;;;;;;;7.10;3.85;;;;;;;;;;5033108;28;20239;-66
2023/08/28 10:02:39;;;;;;;4.80;3.92;;;;;;;;;;5033244;28;20211;-65
2023/08/28 10:05:07;;;;;;;10.23;4.05;;;;;;;;;;5032908;28;20228;-65
2023/08/28 10:07:33;;;;;;;5.35;4.00;;;;;;;;;;5033263;28;20232;-67
2023/08/28 10:10:03;;;;;;;7.07;5.85;;;;;;;;;;5032716;28;20199;-67
2023/08/28 10:12:30;;;;;;;4.90;4.07;;;;;;;;;;5032913;28;20226;-67
2023/08/28 10:14:59;;;;;;;5.72;4.40;;;;;;;;;;5033057;28;20227;-67
2023/08/28 10:17:28;;;;;;;6.63;4.10;;;;;;;;;;5032707;28;20215;-66
2023/08/28 10:19:56;;;;;;;10.70;4.68;;;;;;;;;;5032764;28;20250;-66
2023/08/28 10:22:23;;;;;;;7.70;3.63;;;;;;;;;;5032531;28;20211;-67
2023/08/28 10:24:49;;;;;;;9.40;4.65;;;;;;;;;;5032911;28;20295;-66
2023/08/28 10:27:16;;;;;;;5.10;4.70;;;;;;;;;;5032847;28;20662;-66
2023/08/28 10:29:43;;;;;;;6.53;4.13;;;;;;;;;;5032945;28;20626;-66
2023/08/28 10:32:11;;;;;;;4.28;3.88;;;;;;;;;;5032258;28;20743;-66
2023/08/28 10:34:38;;;;;;;5.07;4.00;;;;;;;;;;5032059;28;20705;-65
2023/08/28 10:37:06;;;;;;;4.45;4.05;;;;;;;;;;5032531;28;20207;-66
2023/08/28 10:39:32;;;;;;;8.40;4.50;;;;;;;;;;5032323;28;20753;-66
2023/08/28 10:41:59;;;;;;;4.82;4.18;;;;;;;;;;5032638;28;20235;-66
2023/08/28 10:44:25;;;;;;;8.93;4.00;;;;;;;;;;5020997;28;20203;-66
2023/08/28 10:46:52;;;;;;;4.68;4.03;;;;;;;;;;5031381;28;20297;-66
2023/08/28 10:49:20;;;;;;;6.78;3.85;;;;;;;;;;5031164;28;20203;-66
2023/08/28 10:51:47;;;;;;;8.38;3.90;;;;;;;;;;5032177;28;20203;-66
2023/08/28 10:54:13;;;;;;;8.25;3.25;;;;;;;;;;5032335;28;20223;-66
2023/08/28 10:56:40;;;;;;;7.43;3.60;;;;;;;;;;5032060;28;20199;-65
2023/08/28 10:59:23;;;;;;;6.75;4.18;;;;;;;;;;5032075;28;20261;-66
2023/08/28 11:01:51;;;;;;;5.43;4.55;;;;;;;;;;5028711;28;20673;-66
2023/08/28 11:04:18;;;;;;;9.88;3.28;;;;;;;;;;5030196;28;20775;-66
2023/08/28 11:06:46;;;;;;;3.42;3.10;;;;;;;;;;5030242;28;20219;-67
2023/08/28 11:09:31;;;;;;;12.43;3.85;;;;;;;;;;5029944;28;20278;-66
2023/08/28 11:12:13;;;;;;;8.15;3.28;;;;;;;;;;5018411;28;20261;-67
2023/08/28 11:14:40;;;;;;;4.97;3.95;;;;;;;;;;5029526;28;20211;-66
2023/08/28 11:17:10;;;;;;;5.72;3.17;;;;;;;;;;5030067;28;20231;-66
2023/08/28 11:20:00;;;;;;;7.88;3.55;;;;;;;;;;5031439;28;20231;-66
2023/08/28 11:22:30;;;;;;;5.40;3.42;;;;;;;;;;5031463;28;20208;-66
2023/08/28 11:24:56;;;;;;;4.82;3.60;;;;;;;;;;5020425;28;20303;-65
2023/08/28 11:27:32;;;;;;;5.13;3.78;;;;;;;;;;5031409;28;20281;-66
2023/08/28 11:30:00;;;;;;;5.18;3.70;;;;;;;;;;5032044;28;20294;-66
2023/08/28 11:32:27;;;;;;;4.50;4.00;;;;;;;;;;5030572;28;20204;-67
2023/08/28 11:34:54;;;;;;;6.60;3.17;;;;;;;;;;5031921;28;20686;-66
2023/08/28 11:37:31;;;;;;;7.28;3.85;;;;;;;;;;5031574;28;20212;-66
2023/08/28 11:39:57;;;;;;;5.38;3.67;;;;;;;;;;5031340;28;20681;-66
2023/08/28 11:42:24;;;;;;;4.88;3.38;;;;;;;;;;5031314;28;20572;-66
2023/08/28 11:44:51;;;;;;;3.90;3.17;;;;;;;;;;5031171;28;20277;-66
2023/08/28 11:47:23;;;;;;;4.13;3.25;;;;;;;;;;5030907;28;20717;-66
2023/08/28 11:49:50;;;;;;;7.68;3.70;;;;;;;;;;5031323;28;20313;-66
2023/08/28 11:52:16;;;;;;;4.45;3.33;;;;;;;;;;5030690;28;20227;-66
2023/08/28 11:54:44;;;;;;;10.02;4.10;;;;;;;;;;5031285;28;20287;-66
2023/08/28 11:57:11;;;;;;;4.00;3.67;;;;;;;;;;5031344;28;20247;-65
2023/08/28 11:59:38;;;;;;;3.60;3.38;;;;;;;;;;5031088;28;20203;-66
2023/08/28 12:02:05;;;;;;;4.70;3.53;;;;;;;;;;5030642;28;20254;-65
2023/08/28 12:04:36;;;;;;;3.45;3.10;;;;;;;;;;5031422;28;20203;-66
2023/08/28 12:07:02;;;;;;;4.78;3.50;;;;;;;;;;5019054;28;20226;-66
2023/08/28 12:09:29;;;;;;;5.40;4.03;;;;;;;;;;5030528;28;20214;-65
2023/08/28 12:11:57;;;;;;;4.18;3.88;;;;;;;;;;5030757;28;20286;-65
2023/08/28 12:14:25;;;;;;;4.45;3.20;;;;;;;;;;5030303;28;20588;-66
2023/08/28 12:16:59;;;;;;;6.75;2.95;;;;;;;;;;5031047;28;20253;-65
2023/08/28 12:19:25;;;;;;;3.40;3.10;;;;;;;;;;5030251;28;20751;-65
2023/08/28 12:21:52;;;;;;;3.60;2.97;;;;;;;;;;5030593;28;20235;-65
2023/08/28 12:24:18;;;;;;;3.40;3.08;;;;;;;;;;5030339;28;20204;-64
2023/08/28 12:26:44;;;;;;;5.10;2.75;;;;;;;;;;5030602;28;20251;-66
2023/08/28 12:29:12;;;;;;;3.40;3.10;;;;;;;;;;5030384;28;20242;-64
2023/08/28 12:31:40;;;;;;;3.97;3.15;;;;;;;;;;5030499;28;20211;-64
2023/08/28 12:34:06;;;;;;;2.85;2.65;;;;;;;;;;5030327;28;20200;-66
2023/08/28 12:36:36;;;;;;;3.63;2.63;;;;;;;;;;5030386;28;20685;-66
2023/08/28 12:39:05;;;;;;;6.53;2.60;;;;;;;;;;5030339;28;20210;-67
2023/08/28 12:41:34;;;;;;;3.58;2.78;;;;;;;;;;5030649;28;20203;-66
2023/08/28 12:44:01;;;;;;;2.95;2.50;;;;;;;;;;5030215;28;20569;-65
2023/08/28 12:46:28;;;;;;;6.05;2.40;;;;;;;;;;5030646;28;20656;-65
2023/08/28 12:48:55;;;;;;;2.05;1.95;;;;;;;;;;5030242;28;20224;-65
2023/08/28 12:51:21;;;;;;;2.85;2.28;;;;;;;;;;5030518;28;20289;-65
2023/08/28 12:53:48;;;;;;;2.60;2.35;;;;;;;;;;5029720;28;20630;-65
2023/08/28 12:56:16;;;;;;;2.22;2.13;;;;;;;;;;5030380;28;20265;-65
2023/08/28 12:58:43;;;;;;;4.75;2.42;;;;;;;;;;5029773;28;20642;-65
2023/08/28 13:01:09;;;;;;;3.15;2.95;;;;;;;;;;5018334;28;20310;-65
2023/08/28 13:03:37;;;;;;;3.03;2.78;;;;;;;;;;5026848;28;20215;-64
2023/08/28 13:06:04;;;;;;;2.65;2.30;;;;;;;;;;5028343;28;20787;-66
2023/08/28 13:08:31;;;;;;;2.47;2.38;;;;;;;;;;5027898;28;20262;-66
2023/08/28 13:10:57;;;;;;;2.67;2.47;;;;;;;;;;5028200;28;20229;-65
2023/08/28 13:13:25;;;;;;;2.72;2.25;;;;;;;;;;5027670;28;20231;-67
2023/08/28 13:15:51;;;;;;;2.80;2.33;;;;;;;;;;5028842;28;20207;-67
2023/08/28 13:18:18;;;;;;;2.53;2.17;;;;;;;;;;5027827;28;20281;-67
2023/08/28 13:20:46;;;;;;;2.38;2.28;;;;;;;;;;5028286;28;20239;-66
2023/08/28 13:23:13;;;;;;;6.28;2.00;;;;;;;;;;5028754;28;20226;-64
2023/08/28 13:25:40;;;;;;;3.10;2.40;;;;;;;;;;5029927;28;20311;-64
2023/08/28 13:28:06;;;;;;;4.20;1.90;;;;;;;;;;5029621;28;20203;-65
2023/08/28 13:30:33;;;;;;;2.40;2.22;;;;;;;;;;5029746;28;20261;-65
2023/08/28 13:33:04;;;;;;;2.17;2.08;;;;;;;;;;5029852;28;20221;-65
2023/08/28 13:35:30;;;;;;;2.03;1.92;;;;;;;;;;5029974;28;20204;-65
2023/08/28 13:37:58;;;;;;;5.00;2.35;;;;;;;;;;5030168;28;20204;-65
2023/08/28 13:40:25;;;;;;;2.55;2.38;;;;;;;;;;5029783;28;20203;-65
2023/08/28 13:42:51;;;;;;;3.42;2.67;;;;;;;;;;5029962;28;20211;-65
2023/08/28 13:45:18;;;;;;;2.38;2.17;;;;;;;;;;5029972;28;20211;-65
2023/08/28 13:47:44;;;;;;;3.60;2.10;;;;;;;;;;5029521;28;20232;-65
2023/08/28 13:50:10;;;;;;;2.80;2.35;;;;;;;;;;5029765;28;20287;-65
2023/08/28 13:52:37;;;;;;;3.95;2.67;;;;;;;;;;5029995;28;20223;-64
2023/08/28 13:55:05;;;;;;;2.55;2.35;;;;;;;;;;5029531;28;20231;-64
2023/08/28 13:57:32;;;;;;;2.47;2.28;;;;;;;;;;5029904;28;20210;-66
2023/08/28 13:59:59;;;;;;;3.45;2.83;;;;;;;;;;5029635;28;20224;-64
2023/08/28 14:02:26;;;;;;;2.85;2.58;;;;;;;;;;5029886;28;20246;-66
2023/08/28 14:04:52;;;;;;;3.95;1.98;;;;;;;;;;5029516;28;20577;-65
2023/08/28 14:07:18;;;;;;;4.43;2.05;;;;;;;;;;5029586;28;20586;-66
2023/08/28 14:09:45;;;;;;;2.17;1.98;;;;;;;;;;5029199;28;20747;-66
2023/08/28 14:12:13;;;;;;;2.28;2.17;;;;;;;;;;5029442;28;20203;-65
2023/08/28 14:14:39;;;;;;;2.47;2.13;;;;;;;;;;5029326;28;20231;-66
2023/08/28 14:17:05;;;;;;;2.00;1.75;;;;;;;;;;5029581;28;20208;-66
2023/08/28 14:19:32;;;;;;;2.10;2.00;;;;;;;;;;5029591;28;20589;-65
2023/08/28 14:21:58;;;;;;;5.63;2.15;;;;;;;;;;5029751;28;20204;-66
2023/08/28 14:24:25;;;;;;;1.92;1.73;;;;;;;;;;5031004;28;20741;-66
2023/08/28 14:26:51;;;;;;;3.42;1.95;;;;;;;;;;5033509;28;20228;-66
2023/08/28 14:29:19;;;;;;;3.42;2.40;;;;;;;;;;5032774;28;20199;-65
2023/08/28 14:31:46;;;;;;;3.67;2.40;;;;;;;;;;5027823;28;20231;-65
2023/08/28 14:34:12;;;;;;;2.22;2.13;;;;;;;;;;5029950;28;20204;-66
2023/08/28 14:36:38;;;;;;;6.05;2.45;;;;;;;;;;5032523;28;20204;-65
2023/08/28 14:39:05;;;;;;;2.20;2.10;;;;;;;;;;5032265;28;20196;-65
2023/08/28 14:41:31;;;;;;;2.20;2.03;;;;;;;;;;5038919;28;20265;-65